Latest Weather Observations for Snowtown

IDS60801

Issued at 7:31 am CST Wednesday 26 April 2017 (issued every 30 minutes, with the page automatically refreshed every 10 minutes)

About weather observations | Map of weather stations | Latest weather observations for SA | Other Formats
Station Details ID: 021133 Name: RAYVILLE PARK Lat: -33.77 Lon: 138.22 Height: 109.1 m
Data from the previous 72 hours. | See also: Recent months at Snowtown
Date/Time
CST
Temp
°C
App
Temp
°C
Dew
Point
°C
Rel
Hum
%
Delta-T
°C
Wind Press
QNH
hPa
Press
MSL
hPa
Rain since
9am
mm
Dir  Spd
km/h
Gust
km/h
Spd
kts
Gust
kts
26/07:30am 10.0 3.4 4.4 68 2.5 SSW 28 35 15 19 1020.1 1020.0 2.0
26/07:00am 9.4 3.6 4.6 72 2.1 SSW 24 32 13 17 1019.8 1019.7 2.0
26/06:30am 9.8 3.7 5.0 72 2.2 SSW 26 35 14 19 1019.3 1019.1 2.0
26/06:00am 10.2 4.0 6.0 75 1.9 SSW 28 41 15 22 1018.7 1018.5 2.0
26/05:30am 10.4 4.0 6.9 79 1.7 SW 30 41 16 22 1018.3 1018.1 2.0
26/05:00am 10.5 4.6 7.4 81 1.5 SSW 28 39 15 21 1017.8 1017.6 2.0
26/04:30am 10.8 3.9 7.1 78 1.8 SW 33 48 18 26 1017.4 1017.2 2.0
26/04:00am 11.4 5.8 7.1 75 2.1 SW 26 37 14 20 1016.9 1016.7 2.0
26/03:30am 11.4 5.9 7.5 77 1.9 SW 26 35 14 19 1016.5 1016.3 2.0
26/03:00am 11.7 7.1 8.2 79 1.7 SW 22 30 12 16 1016.5 1016.3 2.0
26/02:30am 11.8 7.7 8.5 80 1.6 SW 20 37 11 20 1016.5 1016.3 2.0
26/02:00am 12.6 8.1 10.0 84 1.3 SSW 24 33 13 18 1016.2 1016.0 2.0
26/01:30am 12.7 8.8 10.8 88 1.0 SW 22 30 12 16 1015.7 1015.5 2.0
26/01:00am 12.4 6.7 11.0 91 0.7 SW 32 41 17 22 1015.2 1015.0 2.0
26/12:30am 12.8 7.1 11.7 93 0.6 SW 33 46 18 25 1015.0 1014.8 1.6
26/12:03am 13.5 8.7 11.6 88 1.0 WSW 28 50 15 27 1014.7 1014.5 0.8
26/12:00am 14.1 10.2 12.1 88 1.1 W 24 32 13 17 1014.7 1014.5 0.2
 
Date/Time
CST
Temp
°C
App
Temp
°C
Dew
Point
°C
Rel
Hum
%
Delta-T
°C
Wind Press
QNH
hPa
Press
MSL
hPa
Rain since
9am
mm
Dir  Spd
km/h
Gust
km/h
Spd
kts
Gust
kts
25/11:30pm 14.0 9.8 11.2 83 1.5 W 24 33 13 18 1014.4 1014.2 0.0
25/11:00pm 14.1 9.1 10.9 81 1.7 W 28 37 15 20 1014.2 1014.0 0.0
25/10:30pm 14.3 10.0 10.9 80 1.8 W 24 35 13 19 1014.5 1014.3 0.0
25/10:00pm 13.9 10.9 10.5 80 1.8 W 17 24 9 13 1014.6 1014.4 0.0
25/09:30pm 12.5 11.4 10.0 85 1.3 WSW 6 9 3 5 1014.8 1014.6 0.0
25/09:00pm 13.0 12.0 10.4 84 1.4 SW 6 9 3 5 1014.9 1014.7 0.0
25/08:30pm 13.8 12.7 10.6 81 1.7 SW 7 11 4 6 1015.1 1014.9 0.0
25/08:00pm 14.5 11.6 11.1 80 1.8 SW 17 24 9 13 1015.2 1015.0 0.0
25/07:30pm 14.1 12.2 11.8 86 1.2 SW 13 19 7 10 1014.9 1014.7 0.0
25/07:00pm 14.0 11.8 12.2 89 1.0 SW 15 19 8 10 1014.6 1014.4 0.0
25/06:30pm 14.3 11.5 12.5 89 1.0 SW 19 24 10 13 1014.4 1014.2 0.0
25/06:00pm 14.4 9.8 12.3 87 1.1 SW 28 39 15 21 1014.1 1013.9 0.0
25/05:30pm 15.3 10.0 12.6 84 1.5 SW 32 43 17 23 1013.9 1013.7 0.0
25/05:12pm 17.5 13.4 11.5 68 3.3 W 24 48 13 26 1013.7 1013.5 0.0
25/05:00pm 18.0 14.8 11.1 64 3.8 W 19 28 10 15 1013.3 1013.1 0.0
25/04:30pm 19.3 15.5 9.8 54 5.1 WNW 20 28 11 15 1013.1 1012.9 0.0
25/04:00pm 18.9 14.4 9.9 56 4.8 W 24 32 13 17 1013.2 1013.0 0.0
25/03:30pm 19.5 14.0 9.1 51 5.5 W 28 37 15 20 1013.1 1012.9 0.0
25/03:00pm 21.5 16.0 9.1 45 6.6 WSW 28 37 15 20 1013.2 1013.0 0.0
25/02:30pm 20.8 15.6 8.8 46 6.4 W 26 39 14 21 1013.1 1012.9 0.0
25/02:00pm 20.8 15.1 9.7 49 6.0 WSW 30 39 16 21 1013.2 1013.0 0.0
25/01:30pm 19.4 13.0 8.7 50 5.6 WSW 32 39 17 21 1013.4 1013.2 0.0
25/01:00pm 21.8 17.9 12.1 54 5.5 SW 24 33 13 18 1013.7 1013.5 0.0
25/12:30pm 20.0 15.3 10.7 55 5.1 WSW 26 35 14 19 1014.1 1013.9 0.0
25/12:00pm 19.2 14.7 12.5 65 3.8 W 28 35 15 19 1014.5 1014.3 0.0
25/11:30am 19.8 15.3 12.6 63 4.1 WSW 28 33 15 18 1014.7 1014.5 0.0
25/11:00am 19.4 15.3 12.7 65 3.8 WSW 26 33 14 18 1014.8 1014.6 0.0
25/10:30am 18.9 14.6 13.3 70 3.2 WSW 28 37 15 20 1015.1 1014.9 0.0
25/10:00am 18.4 14.3 13.9 75 2.6 W 28 37 15 20 1015.1 1014.9 0.0
25/09:30am 17.3 14.8 14.0 81 1.9 WSW 20 30 11 16 1015.5 1015.3 0.0
25/09:00am 17.1 16.4 14.4 84 1.6 WSW 11 20 6 11 1015.8 1015.6 6.6
25/08:30am 15.7 12.5 13.2 85 1.4 W 22 30 12 16 1015.7 1015.5 6.6
25/08:00am 15.5 12.7 13.3 87 1.2 W 20 26 11 14 1015.4 1015.2 6.6
25/07:30am 14.7 12.0 12.9 89 1.0 W 19 22 10 12 1015.2 1015.0 6.6
25/07:00am 13.7 12.0 12.3 91 0.8 W 13 17 7 9 1014.7 1014.5 6.6
25/06:30am 13.6 11.5 12.3 92 0.7 W 15 19 8 10 1014.5 1014.3 6.6
25/06:00am 13.3 11.6 12.4 94 0.5 WSW 13 17 7 9 1014.3 1014.1 6.6
25/05:30am 13.1 10.9 12.2 94 0.5 W 15 17 8 9 1014.2 1014.0 6.6
25/05:00am 13.2 11.3 11.9 92 0.7 W 13 15 7 8 1014.2 1014.0 6.4
25/04:30am 13.5 11.3 12.2 92 0.7 W 15 17 8 9 1014.0 1013.8 6.4
25/04:00am 14.0 11.2 12.7 92 0.7 W 19 28 10 15 1013.8 1013.6 6.4
25/03:30am 13.9 11.5 12.8 93 0.6 W 17 20 9 11 1013.8 1013.6 6.4
25/03:00am 14.3 11.4 12.9 91 0.8 W 20 22 11 12 1013.8 1013.6 6.4
25/02:30am 14.3 11.4 12.9 91 0.8 W 20 26 11 14 1013.9 1013.7 6.4
25/02:00am 14.2 11.5 12.9 92 0.7 W 19 22 10 12 1013.9 1013.7 6.4
25/01:30am 14.3 11.7 13.2 93 0.6 W 19 20 10 11 1013.8 1013.6 6.4
25/01:00am 14.5 12.7 13.4 93 0.6 WSW 15 19 8 10 1013.9 1013.7 6.4
25/12:30am 15.5 14.0 14.2 92 0.7 WSW 15 20 8 11 1013.8 1013.6 6.4
25/12:00am 15.7 14.0 14.6 93 0.6 WSW 17 22 9 12 1013.9 1013.7 6.4
 
Date/Time
CST
Temp
°C
App
Temp
°C
Dew
Point
°C
Rel
Hum
%
Delta-T
°C
Wind Press
QNH
hPa
Press
MSL
hPa
Rain since
9am
mm
Dir  Spd
km/h
Gust
km/h
Spd
kts
Gust
kts
24/11:30pm 16.1 14.8 14.8 92 0.8 WSW 15 20 8 11 1014.1 1013.9 6.4
24/11:00pm 16.2 14.5 14.6 90 0.9 W 17 20 9 11 1014.5 1014.3 6.4
24/10:30pm 17.0 15.0 15.0 88 1.2 WNW 19 24 10 13 1014.4 1014.2 6.4
24/10:00pm 16.8 15.3 15.3 91 0.9 WNW 17 24 9 13 1014.4 1014.2 6.4
24/09:30pm 16.6 16.7 15.6 94 0.6 NW 9 13 5 7 1014.7 1014.5 6.4
24/09:00pm 16.5 16.3 15.7 95 0.5 NW 11 13 6 7 1014.7 1014.5 6.4
24/08:30pm 16.6 16.0 15.6 94 0.6 NW 13 15 7 8 1014.5 1014.3 6.4
24/08:00pm 16.6 17.0 15.3 92 0.8 W 7 11 4 6 1014.5 1014.3 6.4
24/07:30pm 16.5 17.0 15.5 94 0.6 WSW 7 11 4 6 1014.6 1014.4 6.4
24/07:00pm 16.6 16.4 15.6 94 0.6 WSW 11 15 6 8 1014.3 1014.1 6.4
24/06:30pm 16.9 16.0 15.9 94 0.6 W 15 19 8 10 1014.3 1014.1 6.2
24/06:00pm 17.3 19.1 16.5 95 0.5 N 2 7 1 4 1014.0 1013.8 6.2
24/05:30pm 17.5 17.9 16.4 93 0.7 NNW 9 11 5 6 1013.9 1013.7 6.0
24/05:00pm 17.9 18.9 16.8 93 0.7 NW 7 11 4 6 1014.1 1013.9 5.8
24/04:30pm 18.0 18.2 16.7 92 0.8 NW 11 15 6 8 1014.1 1013.9 5.8
24/04:00pm 18.2 18.9 17.0 93 0.7 NW 9 13 5 7 1014.1 1013.9 5.6
24/03:30pm 18.0 17.9 16.9 93 0.7 WNW 13 17 7 9 1014.0 1013.8 5.2
24/03:00pm 18.3 18.3 17.1 93 0.7 NW 13 17 7 9 1014.3 1014.1 4.6
24/02:30pm 18.6 17.8 17.1 91 0.9 NW 17 20 9 11 1014.4 1014.2 4.0
24/02:00pm 18.9 18.9 17.2 90 1.0 NW 13 20 7 11 1014.7 1014.5 4.0
24/01:30pm 19.0 19.0 17.3 90 1.0 NW 13 17 7 9 1015.0 1014.8 4.0
24/01:00pm 18.8 19.2 17.3 91 0.9 NW 11 15 6 8 1015.2 1015.0 4.0
24/12:30pm 18.5 19.4 17.5 94 0.6 N 9 13 5 7 1015.9 1015.7 4.0
24/12:00pm 18.4 19.2 17.2 93 0.7 N 9 13 5 7 1016.2 1016.0 4.0
24/11:30am 18.3 19.4 17.1 93 0.7 N 7 11 4 6 1016.7 1016.5 4.0
24/11:00am 17.8 17.3 16.8 94 0.6 NNW 15 19 8 10 1017.5 1017.3 3.4
24/10:30am 17.2 17.4 16.7 97 0.3 SSW 11 15 6 8 1017.9 1017.7 2.2
24/10:00am 16.9 17.0 16.6 98 0.2 SSW 11 13 6 7 1017.7 1017.5 1.8
24/09:30am 16.5 16.5 16.2 98 0.2 SSW 11 13 6 7 1017.9 1017.7 1.4
24/09:00am 16.3 17.0 16.0 98 0.2 SSW 7 9 4 5 1018.2 1018.0 2.0
24/08:30am 16.0 17.9 15.7 98 0.2 CALM 0 0 0 0 1017.9 1017.7 1.8
24/08:00am 15.8 17.2 15.5 98 0.2 SSW 2 9 1 5 1017.8 1017.6 1.8
24/07:30am 15.7 16.1 15.4 98 0.2 SSW 7 9 4 5 1017.6 1017.4 1.8
24/07:00am 15.7 17.4 15.2 97 0.3 CALM 0 0 0 0 1017.6 1017.4 1.8
24/06:30am 15.8 17.5 15.3 97 0.3 CALM 0 0 0 0 1017.5 1017.3 1.8
24/06:00am 15.9 17.7 15.4 97 0.3 CALM 0 0 0 0 1017.4 1017.2 1.8
24/05:30am 16.0 17.9 15.7 98 0.2 CALM 0 0 0 0 1017.5 1017.3 1.8
24/05:00am 15.9 16.6 15.6 98 0.2 SSW 6 9 3 5 1017.5 1017.3 1.8
24/04:30am 16.0 17.9 15.7 98 0.2 CALM 0 2 0 1 1017.7 1017.5 1.8
24/04:00am 16.1 16.8 15.6 97 0.3 SSW 6 7 3 4 1017.6 1017.4 1.8
24/03:30am 16.4 17.0 15.9 97 0.3 SSW 7 11 4 6 1017.9 1017.7 1.8
24/03:00am 16.5 17.4 16.0 97 0.3 SSW 6 9 3 5 1018.2 1018.0 1.8
24/02:30am 15.9 16.3 15.3 96 0.3 SSW 7 9 4 5 1018.4 1018.2 1.8
24/02:00am 16.5 17.1 15.7 95 0.5 SSW 7 11 4 6 1018.9 1018.7 1.8
24/01:30am 16.6 17.3 15.6 94 0.6 SSW 6 7 3 4 1019.0 1018.8 1.8
24/01:00am 16.9 17.5 15.9 94 0.6 SSW 7 9 4 5 1019.3 1019.1 1.8
24/12:30am 17.0 17.3 16.0 94 0.6 SSW 9 11 5 6 1019.6 1019.4 1.8
24/12:00am 17.0 16.9 16.0 94 0.6 SSW 11 13 6 7 1019.8 1019.7 1.8
 
Date/Time
CST
Temp
°C
App
Temp
°C
Dew
Point
°C
Rel
Hum
%
Delta-T
°C
Wind Press
QNH
hPa
Press
MSL
hPa
Rain since
9am
mm
Dir  Spd
km/h
Gust
km/h
Spd
kts
Gust
kts
23/11:30pm 17.0 17.3 16.0 94 0.6 SSW 9 11 5 6 1019.9 1019.8 1.8
23/11:00pm 17.2 17.3 16.6 96 0.4 S 11 13 6 7 1020.0 1019.9 1.6
23/10:30pm 17.3 18.7 16.3 94 0.6 S 4 9 2 5 1020.3 1020.2 1.6
23/10:00pm 17.3 18.0 16.2 93 0.7 S 7 9 4 5 1020.5 1020.4 1.6
23/09:30pm 17.4 19.1 16.3 93 0.7 S 2 9 1 5 1020.9 1020.8 1.4
23/09:00pm 17.3 18.0 16.2 93 0.7 S 7 9 4 5 1020.6 1020.5 1.4
23/08:30pm 17.2 18.1 16.2 94 0.6 S 6 7 3 4 1020.6 1020.5 1.4
23/08:00pm 17.3 17.7 16.3 94 0.6 S 9 9 5 5 1020.7 1020.6 1.4
23/07:30pm 17.6 18.0 16.3 92 0.8 S 9 11 5 6 1020.7 1020.6 1.0
23/07:00pm 17.8 19.8 16.1 90 1.0 CALM 0 7 0 4 1020.7 1020.6 0.6
23/06:30pm 18.1 18.8 15.7 86 1.4 S 6 11 3 6 1020.3 1020.2 0.2
23/06:00pm 18.7 18.1 15.6 82 1.8 SSE 13 19 7 10 1019.9 1019.8 0.0
23/05:30pm 19.5 19.8 15.0 75 2.6 N 7 9 4 5 1019.8 1019.7 0.0
23/05:00pm 20.7 20.7 14.1 66 3.8 N 7 9 4 5 1020.0 1019.9 0.0
23/04:30pm 21.0 20.5 13.7 63 4.2 N 9 11 5 6 1019.8 1019.7 0.0
23/04:00pm 21.3 20.9 14.0 63 4.3 N 9 13 5 7 1019.9 1019.8 0.0
23/03:30pm 20.5 19.5 15.7 74 2.9 N 15 19 8 10 1020.0 1019.9 0.0
23/03:00pm 20.3 19.0 15.9 76 2.6 N 17 22 9 12 1020.1 1020.0 0.0
23/02:30pm 20.7 19.1 15.0 70 3.4 NNE 17 20 9 11 1020.1 1020.0 0.0
23/02:00pm 21.6 19.8 16.1 71 3.3 NNE 20 26 11 14 1020.0 1019.9 0.0
23/01:30pm 22.2 21.1 15.3 65 4.1 N 15 20 8 11 1020.1 1020.0 0.0
23/01:00pm 22.6 23.0 14.7 61 4.7 ENE 6 11 3 6 1020.4 1020.3 0.0
23/12:30pm 22.3 22.7 14.7 62 4.5 NE 6 13 3 7 1020.9 1020.8 0.0
23/12:00pm 22.5 21.6 14.9 62 4.5 NE 13 19 7 10 1021.4 1021.3 0.0
23/11:30am 21.9 21.6 14.5 63 4.3 SSE 9 15 5 8 1021.7 1021.6 0.0
23/11:00am 21.3 21.0 14.5 65 4.0 SSE 9 17 5 9 1022.1 1022.0 0.0
23/10:30am 20.4 20.5 14.5 69 3.4 SSE 7 11 4 6 1022.5 1022.3 0.0
23/10:00am 19.9 19.9 14.3 70 3.3 SSE 7 11 4 6 1022.3 1022.2 0.0
23/09:30am 19.7 19.0 14.3 71 3.1 SSE 11 15 6 8 1022.7 1022.5 0.0
23/09:00am 18.5 18.4 14.0 75 2.6 SSE 7 9 4 5 1022.7 1022.5 0.0
23/08:30am 18.0 19.2 13.9 77 2.3 CALM 0 0 0 0 1022.7 1022.5 0.0
23/08:00am 17.1 18.2 13.4 79 2.1 CALM 0 0 0 0 1022.2 1022.1 0.0

Other Formats:

Comma delimited format used in spreadsheet applications
http://www.bom.gov.au/fwo/IDS60801/IDS60801.95670.axf

JavaScript Object Notation format (JSON) in row-major order
http://www.bom.gov.au/fwo/IDS60801/IDS60801.95670.json